createdAt,value
2016-04-14T00:00:39.827Z,984.39
2016-04-14T00:01:39.814Z,984.32
2016-04-14T00:02:39.816Z,984.35
2016-04-14T00:03:39.835Z,984.32
2016-04-14T00:04:39.821Z,984.31
2016-04-14T00:05:39.808Z,984.31
2016-04-14T00:06:39.811Z,984.31
2016-04-14T00:07:39.814Z,984.3
2016-04-14T00:08:39.816Z,984.31
2016-04-14T00:09:39.817Z,984.35
2016-04-14T00:10:39.820Z,984.33
2016-04-14T00:11:39.807Z,984.38
2016-04-14T00:12:39.825Z,984.39
2016-04-14T00:13:39.813Z,984.4
2016-04-14T00:14:39.815Z,984.4
2016-04-14T00:15:39.818Z,984.41
2016-04-14T00:16:39.821Z,984.44
2016-04-14T00:17:39.807Z,984.47
2016-04-14T00:18:39.810Z,984.45
2016-04-14T00:19:39.813Z,984.51
2016-04-14T00:20:39.816Z,984.49
2016-04-14T00:21:39.803Z,984.52
2016-04-14T00:22:39.806Z,984.52
2016-04-14T00:23:39.809Z,984.54
2016-04-14T00:24:39.811Z,984.52
2016-04-14T00:25:39.814Z,984.53
2016-04-14T00:26:39.816Z,984.52
2016-04-14T00:27:39.820Z,984.54
2016-04-14T00:28:39.806Z,984.57
2016-04-14T00:29:39.808Z,984.54
2016-04-14T00:30:39.812Z,984.56
2016-04-14T00:31:39.814Z,984.57
2016-04-14T00:32:39.800Z,984.61
2016-04-14T00:33:39.820Z,984.61
2016-04-14T00:34:39.806Z,984.62
2016-04-14T00:35:39.856Z,984.61
2016-04-14T00:36:39.803Z,984.62
2016-04-14T00:37:39.805Z,984.62
2016-04-14T00:38:39.808Z,984.62
2016-04-14T00:39:39.796Z,984.64
2016-04-14T00:40:39.798Z,984.62
2016-04-14T00:41:39.801Z,984.63
2016-04-14T00:42:39.804Z,984.63
2016-04-14T00:43:39.806Z,984.62
2016-04-14T00:44:39.809Z,984.62
2016-04-14T00:45:39.796Z,984.65
2016-04-14T00:46:39.799Z,984.61
2016-04-14T00:47:39.802Z,984.64
2016-04-14T00:48:39.804Z,984.62
2016-04-14T00:49:39.807Z,984.61
2016-04-14T00:50:39.810Z,984.59
2016-04-14T00:51:39.797Z,984.64
2016-04-14T00:52:39.799Z,984.64
2016-04-14T00:53:39.803Z,984.66
2016-04-14T00:54:39.805Z,984.68
2016-04-14T00:55:39.792Z,984.66
2016-04-14T00:56:39.794Z,984.65
2016-04-14T00:57:39.797Z,984.65
2016-04-14T00:58:39.800Z,984.65
2016-04-14T00:59:39.802Z,984.64
2016-04-14T01:00:39.789Z,984.68
2016-04-14T01:01:39.792Z,984.66
2016-04-14T01:02:39.794Z,984.73
2016-04-14T01:03:39.797Z,984.72
2016-04-14T01:04:39.800Z,984.75
2016-04-14T01:05:39.787Z,984.73
2016-04-14T01:06:39.791Z,984.76
2016-04-14T01:07:39.793Z,984.73
2016-04-14T01:08:39.796Z,984.78
2016-04-14T01:09:39.798Z,984.76
2016-04-14T01:10:39.785Z,984.75
2016-04-14T01:11:39.788Z,984.75
2016-04-14T01:12:39.790Z,984.77
2016-04-14T01:13:39.793Z,984.79
2016-04-14T01:14:39.796Z,984.79
2016-04-14T01:15:39.798Z,984.82
2016-04-14T01:16:39.801Z,984.83
2016-04-14T01:17:39.804Z,984.81
2016-04-14T01:18:39.785Z,984.84
2016-04-14T01:19:39.803Z,984.82
2016-04-14T01:20:39.791Z,984.85
2016-04-14T01:21:39.794Z,984.91
2016-04-14T01:22:39.780Z,984.95
2016-04-14T01:23:39.783Z,984.93
2016-04-14T01:24:39.786Z,984.97
2016-04-14T01:25:39.788Z,984.97
2016-04-14T01:26:39.775Z,984.96
2016-04-14T01:27:39.778Z,984.96
2016-04-14T01:28:39.780Z,985
2016-04-14T01:29:39.783Z,984.96
2016-04-14T01:30:39.771Z,984.99
2016-04-14T01:31:39.773Z,984.99
2016-04-14T01:32:39.792Z,985.05
2016-04-14T01:33:39.779Z,985.01
2016-04-14T01:34:39.782Z,985.01
2016-04-14T01:35:39.799Z,985.09
2016-04-14T01:36:39.787Z,985.06
2016-04-14T01:37:39.774Z,985.08
2016-04-14T01:38:39.776Z,985.12
2016-04-14T01:39:39.779Z,985.08
2016-04-14T01:40:39.766Z,985.11
2016-04-14T01:41:39.768Z,985.1
2016-04-14T01:42:39.771Z,985.13
2016-04-14T01:43:39.774Z,985.19
2016-04-14T01:44:39.777Z,985.17
2016-04-14T01:45:39.764Z,985.18
2016-04-14T01:46:39.782Z,985.14
2016-04-14T01:47:39.784Z,985.18
2016-04-14T01:48:39.772Z,985.17
2016-04-14T01:49:39.759Z,985.21
2016-04-14T01:50:39.778Z,985.2
2016-04-14T01:51:39.764Z,985.17
2016-04-14T01:52:39.767Z,985.19
2016-04-14T01:53:39.770Z,985.22
2016-04-14T01:54:39.757Z,985.23
2016-04-14T01:55:39.775Z,985.21
2016-04-14T01:56:39.777Z,985.23
2016-04-14T01:57:39.750Z,985.21
2016-04-14T01:58:39.768Z,985.22
2016-04-14T01:59:39.771Z,985.24
2016-04-14T02:00:39.789Z,985.26
2016-04-14T02:01:39.744Z,985.25
2016-04-14T02:02:39.747Z,985.26
2016-04-14T02:03:39.750Z,985.27
2016-04-14T02:04:39.752Z,985.26
2016-04-14T02:05:39.755Z,985.24
2016-04-14T02:06:39.742Z,985.34
2016-04-14T02:07:39.745Z,985.33
2016-04-14T02:08:39.763Z,985.3
2016-04-14T02:09:39.751Z,985.34
2016-04-14T02:10:39.784Z,985.31
2016-04-14T02:11:39.740Z,985.33
2016-04-14T02:12:39.742Z,985.32
2016-04-14T02:13:39.745Z,985.32
2016-04-14T02:14:39.732Z,985.37
2016-04-14T02:15:39.735Z,985.31
2016-04-14T02:16:39.738Z,985.35
2016-04-14T02:17:39.741Z,985.35
2016-04-14T02:18:39.743Z,985.39
2016-04-14T02:19:39.745Z,985.37
2016-04-14T02:20:39.734Z,985.37
2016-04-14T02:21:39.736Z,985.4
2016-04-14T02:22:39.739Z,985.37
2016-04-14T02:23:39.726Z,985.38
2016-04-14T02:24:39.728Z,985.41
2016-04-14T02:25:39.731Z,985.43
2016-04-14T02:26:39.718Z,985.38
2016-04-14T02:27:39.736Z,985.4
2016-04-14T02:28:39.738Z,985.42
2016-04-14T02:29:39.727Z,985.41
2016-04-14T02:30:39.713Z,985.4
2016-04-14T02:31:39.731Z,985.35
2016-04-14T02:32:39.719Z,985.37
2016-04-14T02:33:39.721Z,985.33
2016-04-14T02:34:39.724Z,985.32
2016-04-14T02:35:39.711Z,985.33
2016-04-14T02:36:39.729Z,985.39
2016-04-14T02:37:39.716Z,985.38
2016-04-14T02:38:39.719Z,985.37
2016-04-14T02:39:39.721Z,985.36
2016-04-14T02:40:39.724Z,985.37
2016-04-14T02:41:39.727Z,985.35
2016-04-14T02:42:39.714Z,985.4
2016-04-14T02:43:39.717Z,985.41
2016-04-14T02:44:39.704Z,985.36
2016-04-14T02:45:39.706Z,985.41
2016-04-14T02:46:39.693Z,985.41
2016-04-14T02:47:39.696Z,985.42
2016-04-14T02:48:39.698Z,985.43
2016-04-14T02:49:39.686Z,985.42
2016-04-14T02:50:39.689Z,985.44
2016-04-14T02:51:39.691Z,985.47
2016-04-14T02:52:39.695Z,985.45
2016-04-14T02:53:39.681Z,985.46
2016-04-14T02:54:39.684Z,985.47
2016-04-14T02:55:39.702Z,985.44
2016-04-14T02:56:39.674Z,985.42
2016-04-14T02:57:39.677Z,985.42
2016-04-14T02:58:39.679Z,985.48
2016-04-14T02:59:39.682Z,985.47
2016-04-14T03:00:39.669Z,985.5
2016-04-14T03:01:39.672Z,985.54
2016-04-14T03:02:39.674Z,985.5
2016-04-14T03:03:39.677Z,985.5
2016-04-14T03:04:39.679Z,985.56
2016-04-14T03:05:39.683Z,985.57
2016-04-14T03:06:39.669Z,985.56
2016-04-14T03:07:39.671Z,985.58
2016-04-14T03:08:39.675Z,985.56
2016-04-14T03:09:39.693Z,985.6
2016-04-14T03:10:39.696Z,985.63
2016-04-14T03:11:39.651Z,985.58
2016-04-14T03:12:39.654Z,985.63
2016-04-14T03:13:39.656Z,985.62
2016-04-14T03:14:39.644Z,985.64
2016-04-14T03:15:39.646Z,985.61
2016-04-14T03:16:39.648Z,985.64
2016-04-14T03:17:39.637Z,985.61
2016-04-14T03:18:39.639Z,985.63
2016-04-14T03:19:39.657Z,985.63
2016-04-14T03:20:39.629Z,985.63
2016-04-14T03:21:39.631Z,985.62
2016-04-14T03:22:39.634Z,985.6
2016-04-14T03:23:39.637Z,985.61
2016-04-14T03:24:39.639Z,985.63
2016-04-14T03:25:39.798Z,985.59
2016-04-14T03:26:39.630Z,985.63
2016-04-14T03:27:39.632Z,985.6
2016-04-14T03:28:39.620Z,985.63
2016-04-14T03:29:39.622Z,985.61
2016-04-14T03:30:39.625Z,985.68
2016-04-14T03:31:39.611Z,985.65
2016-04-14T03:32:39.614Z,985.62
2016-04-14T03:33:39.617Z,985.67
2016-04-14T03:34:39.604Z,985.61
2016-04-14T03:35:39.622Z,985.6
2016-04-14T03:36:39.609Z,985.6
2016-04-14T03:37:39.612Z,985.59
2016-04-14T03:38:39.599Z,985.59
2016-04-14T03:39:39.602Z,985.61
2016-04-14T03:40:39.651Z,985.58
2016-04-14T03:41:39.591Z,985.54
2016-04-14T03:42:39.610Z,985.58
2016-04-14T03:43:39.596Z,985.6
2016-04-14T03:44:39.599Z,985.6
2016-04-14T03:45:39.587Z,985.62
2016-04-14T03:46:39.589Z,985.61
2016-04-14T03:47:39.593Z,985.66
2016-04-14T03:48:39.579Z,985.66
2016-04-14T03:49:39.581Z,985.63
2016-04-14T03:50:39.585Z,985.65
2016-04-14T03:51:39.587Z,985.66
2016-04-14T03:52:39.575Z,985.67
2016-04-14T03:53:39.577Z,985.66
2016-04-14T03:54:39.580Z,985.69
2016-04-14T03:55:39.676Z,985.65
2016-04-14T03:56:39.570Z,985.64
2016-04-14T03:57:39.572Z,985.64
2016-04-14T03:58:39.574Z,985.67
2016-04-14T03:59:39.561Z,985.69
2016-04-14T04:00:39.564Z,985.68
2016-04-14T04:01:39.567Z,985.7
2016-04-14T04:02:39.554Z,985.72
2016-04-14T04:03:39.557Z,985.75
2016-04-14T04:04:39.544Z,985.75
2016-04-14T04:05:39.562Z,985.77
2016-04-14T04:06:39.549Z,985.75
2016-04-14T04:07:39.552Z,985.78
2016-04-14T04:08:39.538Z,985.76
2016-04-14T04:09:39.542Z,985.78
2016-04-14T04:10:39.544Z,985.8
2016-04-14T04:11:39.531Z,985.78
2016-04-14T04:12:39.535Z,985.78
2016-04-14T04:13:39.552Z,985.75
2016-04-14T04:14:39.540Z,985.77
2016-04-14T04:15:39.527Z,985.77
2016-04-14T04:16:39.545Z,985.73
2016-04-14T04:17:39.532Z,985.75
2016-04-14T04:18:39.520Z,985.74
2016-04-14T04:19:39.522Z,985.74
2016-04-14T04:20:39.525Z,985.74
2016-04-14T04:21:39.528Z,985.75
2016-04-14T04:22:39.515Z,985.82
2016-04-14T04:23:39.517Z,985.83
2016-04-14T04:24:39.520Z,985.84
2016-04-14T04:25:39.522Z,985.83
2016-04-14T04:26:39.509Z,985.85
2016-04-14T04:27:39.528Z,985.87
2016-04-14T04:28:39.515Z,985.87
2016-04-14T04:29:39.517Z,985.89
2016-04-14T04:30:39.519Z,985.89
2016-04-14T04:31:39.508Z,985.88
2016-04-14T04:32:39.510Z,985.9
2016-04-14T04:33:39.513Z,985.88
2016-04-14T04:34:39.516Z,985.9
2016-04-14T04:35:39.502Z,985.93
2016-04-14T04:36:39.505Z,985.89
2016-04-14T04:37:39.508Z,985.92
2016-04-14T04:38:39.494Z,985.9
2016-04-14T04:39:39.513Z,985.9
2016-04-14T04:40:39.499Z,985.92
2016-04-14T04:41:39.502Z,985.91
2016-04-14T04:42:39.490Z,985.89
2016-04-14T04:43:39.493Z,985.96
2016-04-14T04:44:39.495Z,985.91
2016-04-14T04:45:39.482Z,985.98
2016-04-14T04:46:39.485Z,985.94
2016-04-14T04:47:39.487Z,986
2016-04-14T04:48:39.475Z,985.96
2016-04-14T04:49:39.478Z,985.98
2016-04-14T04:50:39.480Z,986.03
2016-04-14T04:51:39.483Z,986.04
2016-04-14T04:52:39.486Z,986.02
2016-04-14T04:53:39.473Z,986.04
2016-04-14T04:54:39.475Z,986.05
2016-04-14T04:55:39.478Z,986.08
2016-04-14T04:56:39.465Z,986.08
2016-04-14T04:57:39.467Z,986.03
2016-04-14T04:58:39.470Z,986.04
2016-04-14T04:59:39.472Z,986.08
2016-04-14T05:00:39.460Z,986.09
2016-04-14T05:01:39.464Z,986.06
2016-04-14T05:02:39.466Z,986.11
2016-04-14T05:03:39.468Z,986.11
2016-04-14T05:04:39.472Z,986.07
2016-04-14T05:05:39.474Z,986.07
2016-04-14T05:06:39.477Z,986.07
2016-04-14T05:07:39.463Z,986.07
2016-04-14T05:08:39.466Z,986.07
2016-04-14T05:09:39.468Z,986.08
2016-04-14T05:10:39.456Z,986.1
2016-04-14T05:11:39.458Z,986.11
2016-04-14T05:12:39.446Z,986.1
2016-04-14T05:13:39.463Z,986.09
2016-04-14T05:14:39.510Z,986.1
2016-04-14T05:15:39.557Z,986.09
2016-04-14T05:16:39.588Z,986.1
2016-04-14T05:17:39.636Z,986.09
2016-04-14T05:18:39.689Z,986.11
2016-04-14T05:19:39.693Z,986.1
2016-04-14T05:20:39.711Z,986.13
2016-04-14T05:21:39.715Z,986.14
2016-04-14T05:22:39.734Z,986.17
2016-04-14T05:23:39.750Z,986.18
2016-04-14T05:24:39.758Z,986.2
2016-04-14T05:25:39.750Z,986.26
2016-04-14T05:26:39.774Z,986.34
2016-04-14T05:27:39.783Z,986.34
2016-04-14T05:28:39.791Z,986.38
2016-04-14T05:29:39.780Z,986.41
2016-04-14T05:30:39.768Z,986.39
2016-04-14T05:31:39.790Z,986.41
2016-04-14T05:32:39.779Z,986.49
2016-04-14T05:33:39.783Z,986.47
2016-04-14T05:34:39.771Z,986.54
2016-04-14T05:35:39.775Z,986.5
2016-04-14T05:36:39.779Z,986.54
2016-04-14T05:37:39.782Z,986.54
2016-04-14T05:38:39.785Z,986.55
2016-04-14T05:39:39.772Z,986.54
2016-04-14T05:40:39.775Z,986.56
2016-04-14T05:41:39.793Z,986.55
2016-04-14T05:42:39.780Z,986.55
2016-04-14T05:43:39.782Z,986.55
2016-04-14T05:44:39.769Z,986.59
2016-04-14T05:45:39.772Z,986.55
2016-04-14T05:46:39.775Z,986.58
2016-04-14T05:47:39.778Z,986.6
2016-04-14T05:48:39.765Z,986.62
2016-04-14T05:49:39.768Z,986.53
2016-04-14T05:50:39.771Z,986.52
2016-04-14T05:51:39.773Z,986.51
2016-04-14T05:52:39.760Z,986.53
2016-04-14T05:53:39.763Z,986.58
2016-04-14T05:54:39.765Z,986.61
2016-04-14T05:55:39.768Z,986.57
2016-04-14T05:56:39.755Z,986.57
2016-04-14T05:57:39.773Z,986.55
2016-04-14T05:58:39.761Z,986.6
2016-04-14T05:59:39.764Z,986.6
2016-04-14T06:00:39.767Z,986.6
2016-04-14T06:01:39.784Z,986.64
2016-04-14T06:02:39.772Z,986.64
2016-04-14T06:03:39.759Z,986.62
2016-04-14T06:04:39.777Z,986.67
2016-04-14T06:05:39.780Z,986.68
2016-04-14T06:06:39.766Z,986.73
2016-04-14T06:07:39.769Z,986.76
2016-04-14T06:08:39.771Z,986.79
2016-04-14T06:09:39.774Z,986.82
2016-04-14T06:10:39.761Z,986.88
2016-04-14T06:11:39.763Z,986.85
2016-04-14T06:12:39.766Z,986.85
2016-04-14T06:13:39.769Z,986.88
2016-04-14T06:14:39.756Z,986.89
2016-04-14T06:15:39.774Z,986.89
2016-04-14T06:16:39.762Z,986.94
2016-04-14T06:17:39.765Z,986.95
2016-04-14T06:18:39.767Z,986.93
2016-04-14T06:19:39.771Z,986.92
2016-04-14T06:20:39.788Z,986.95
2016-04-14T06:21:39.760Z,986.92
2016-04-14T06:22:39.762Z,986.94
2016-04-14T06:23:39.765Z,986.92
2016-04-14T06:24:39.768Z,986.93
2016-04-14T06:25:39.771Z,986.98
2016-04-14T06:26:39.774Z,986.97
2016-04-14T06:27:39.776Z,986.97
2016-04-14T06:28:39.763Z,986.98
2016-04-14T06:29:39.766Z,987
2016-04-14T06:30:39.768Z,986.96
2016-04-14T06:31:39.771Z,986.99
2016-04-14T06:32:39.773Z,987.01
2016-04-14T06:33:39.776Z,987.04
2016-04-14T06:34:39.778Z,987.07
2016-04-14T06:35:39.781Z,987.07
2016-04-14T06:36:39.784Z,987.13
2016-04-14T06:37:39.771Z,987.1
2016-04-14T06:38:39.774Z,987.12
2016-04-14T06:39:39.792Z,987.15
2016-04-14T06:40:39.795Z,987.15
2016-04-14T06:41:39.783Z,987.05
2016-04-14T06:42:39.800Z,987.07
2016-04-14T06:43:39.788Z,987.07
2016-04-14T06:44:39.790Z,987.11
2016-04-14T06:45:39.808Z,987.1
2016-04-14T06:46:39.811Z,987.14
2016-04-14T06:47:39.799Z,987.13
2016-04-14T06:48:39.816Z,987.16
2016-04-14T06:49:39.819Z,987.15
2016-04-14T06:50:39.806Z,987.1
2016-04-14T06:51:39.824Z,987.1
2016-04-14T06:52:39.827Z,987.15
2016-04-14T06:53:39.830Z,987.13
2016-04-14T06:54:39.818Z,987.15
2016-04-14T06:55:39.835Z,987.19
2016-04-14T06:56:39.838Z,987.24
2016-04-14T06:57:39.841Z,987.24
2016-04-14T06:58:39.829Z,987.23
2016-04-14T06:59:39.832Z,987.24
2016-04-14T07:00:39.849Z,987.3
2016-04-14T07:01:39.852Z,987.21
2016-04-14T07:02:39.855Z,987.29
2016-04-14T07:03:39.857Z,987.29
2016-04-14T07:04:39.861Z,987.27
2016-04-14T07:05:39.863Z,987.3
2016-04-14T07:06:39.877Z,987.32
2016-04-14T07:07:39.880Z,987.33
2016-04-14T07:08:39.876Z,987.33
2016-04-14T07:09:39.895Z,987.36
2016-04-14T07:10:39.902Z,987.38
2016-04-14T07:11:39.922Z,987.4
2016-04-14T07:12:39.894Z,987.41
2016-04-14T07:13:39.912Z,987.47
2016-04-14T07:14:39.907Z,987.53
2016-04-14T07:15:39.909Z,987.47
2016-04-14T07:16:39.906Z,987.52
2016-04-14T07:17:40.474Z,987.47
2016-04-14T07:18:39.929Z,987.49
2016-04-14T07:19:39.932Z,987.52
2016-04-14T07:20:39.919Z,987.47
2016-04-14T07:21:39.937Z,987.56
2016-04-14T07:22:39.924Z,987.51
2016-04-14T07:23:39.942Z,987.55
2016-04-14T07:24:39.945Z,987.59
2016-04-14T07:25:39.948Z,987.53
2016-04-14T07:26:39.997Z,987.55
2016-04-14T07:27:39.953Z,987.54
2016-04-14T07:28:39.955Z,987.6
2016-04-14T07:29:39.958Z,987.62
2016-04-14T07:30:39.961Z,987.6
2016-04-14T07:31:39.964Z,987.61
2016-04-14T07:32:39.981Z,987.63
2016-04-14T07:33:39.969Z,987.65
2016-04-14T07:34:39.972Z,987.65
2016-04-14T07:35:39.974Z,987.7
2016-04-14T07:36:39.992Z,987.7
2016-04-14T07:37:39.980Z,987.67
2016-04-14T07:38:39.998Z,987.69
2016-04-14T07:39:40.001Z,987.71
2016-04-14T07:40:40.004Z,987.7
2016-04-14T07:41:40.022Z,987.69
2016-04-14T07:42:40.009Z,987.66
2016-04-14T07:43:40.011Z,987.64
2016-04-14T07:44:40.014Z,987.69
2016-04-14T07:45:40.017Z,987.72
2016-04-14T07:46:40.035Z,987.72
2016-04-14T07:47:40.038Z,987.7
2016-04-14T07:48:40.040Z,987.68
2016-04-14T07:49:40.043Z,987.74
2016-04-14T07:50:40.046Z,987.72
2016-04-14T07:51:40.048Z,987.72
2016-04-14T07:52:40.052Z,987.69
2016-04-14T07:53:40.054Z,987.71
2016-04-14T07:54:40.057Z,987.75
2016-04-14T07:55:40.060Z,987.73
2016-04-14T07:56:40.171Z,987.75
2016-04-14T07:57:40.081Z,987.75
2016-04-14T07:58:40.083Z,987.72
2016-04-14T07:59:40.101Z,987.75
2016-04-14T08:00:40.103Z,987.72
2016-04-14T08:01:40.106Z,987.83
2016-04-14T08:02:40.109Z,987.82
2016-04-14T08:03:40.112Z,987.77
2016-04-14T08:04:40.115Z,987.79
2016-04-14T08:05:40.117Z,987.74
2016-04-14T08:06:40.120Z,987.75
2016-04-14T08:07:40.139Z,987.77
2016-04-14T08:08:40.122Z,987.77
2016-04-14T08:09:40.150Z,987.78
2016-04-14T08:10:40.137Z,987.81
2016-04-14T08:11:40.296Z,987.81
2016-04-14T08:12:40.158Z,987.8
2016-04-14T08:13:40.161Z,987.87
2016-04-14T08:14:40.164Z,987.83
2016-04-14T08:15:40.181Z,987.84
2016-04-14T08:16:40.184Z,987.86
2016-04-14T08:17:40.187Z,987.83
2016-04-14T08:18:40.190Z,987.85
2016-04-14T08:19:40.208Z,987.93
2016-04-14T08:20:40.227Z,987.93
2016-04-14T08:21:40.229Z,987.95
2016-04-14T08:22:40.216Z,987.95
2016-04-14T08:23:40.235Z,987.95
2016-04-14T08:24:40.237Z,987.9
2016-04-14T08:25:40.271Z,987.94
2016-04-14T08:26:40.273Z,987.93
2016-04-14T08:27:40.260Z,987.96
2016-04-14T08:28:40.263Z,987.92
2016-04-14T08:29:40.282Z,987.92
2016-04-14T08:30:40.285Z,987.9
2016-04-14T08:31:40.302Z,987.94
2016-04-14T08:32:40.321Z,987.97
2016-04-14T08:33:40.308Z,987.95
2016-04-14T08:34:40.326Z,987.97
2016-04-14T08:35:40.329Z,987.96
2016-04-14T08:36:40.323Z,987.97
2016-04-14T08:37:40.326Z,987.95
2016-04-14T08:38:40.345Z,987.95
2016-04-14T08:39:40.348Z,987.96
2016-04-14T08:40:40.367Z,987.96
2016-04-14T08:41:40.353Z,987.95
2016-04-14T08:42:40.356Z,987.96
2016-04-14T08:43:40.359Z,987.93
2016-04-14T08:44:40.377Z,987.94
2016-04-14T08:45:40.380Z,987.94
2016-04-14T08:46:40.397Z,987.97
2016-04-14T08:47:40.385Z,987.95
2016-04-14T08:48:40.388Z,987.95
2016-04-14T08:49:40.405Z,988.06
2016-04-14T08:50:40.408Z,988
2016-04-14T08:51:40.410Z,987.99
2016-04-14T08:52:40.413Z,987.95
2016-04-14T08:53:40.416Z,987.95
2016-04-14T08:54:40.419Z,987.96
2016-04-14T08:55:40.422Z,987.97
2016-04-14T08:56:40.471Z,988
2016-04-14T08:57:40.427Z,987.99
2016-04-14T08:58:40.445Z,987.93
2016-04-14T08:59:40.448Z,987.92
2016-04-14T09:00:40.466Z,987.99
2016-04-14T09:01:40.454Z,988.01
2016-04-14T09:02:40.457Z,988.08
2016-04-14T09:03:40.460Z,988.09
2016-04-14T09:04:40.477Z,988.1
2016-04-14T09:05:40.465Z,988.07
2016-04-14T09:06:40.468Z,988.06
2016-04-14T09:07:40.501Z,988.04
2016-04-14T09:08:40.488Z,988.04
2016-04-14T09:09:40.490Z,988.09
2016-04-14T09:10:40.493Z,988.11
2016-04-14T09:11:40.495Z,988.1
2016-04-14T09:12:40.498Z,988.07
2016-04-14T09:13:40.501Z,988.05
2016-04-14T09:14:40.519Z,988.07
2016-04-14T09:15:40.507Z,988.05
2016-04-14T09:16:40.509Z,988.08
2016-04-14T09:17:40.512Z,988.14
2016-04-14T09:18:40.515Z,988.14
2016-04-14T09:19:40.533Z,988.12
2016-04-14T09:20:40.520Z,988.13
2016-04-14T09:21:40.538Z,988.1
2016-04-14T09:22:40.525Z,988.12
2016-04-14T09:23:40.543Z,988.04
2016-04-14T09:24:40.546Z,988.05
2016-04-14T09:25:40.549Z,988.08
2016-04-14T09:26:40.568Z,988.11
2016-04-14T09:27:40.538Z,988.03
2016-04-14T09:28:40.574Z,988.1
2016-04-14T09:29:40.560Z,988.07
2016-04-14T09:30:40.563Z,988.09
2016-04-14T09:31:40.565Z,988.11
2016-04-14T09:32:40.568Z,988.07
2016-04-14T09:33:40.571Z,988.09
2016-04-14T09:34:40.573Z,988.09
2016-04-14T09:35:40.576Z,988.03
2016-04-14T09:36:40.579Z,988.05
2016-04-14T09:37:40.582Z,988.07
2016-04-14T09:38:40.585Z,988.1
2016-04-14T09:39:40.587Z,988.04
2016-04-14T09:40:40.590Z,988.04
2016-04-14T09:41:40.608Z,988.03
2016-04-14T09:42:40.595Z,988.05
2016-04-14T09:43:40.613Z,988.02
2016-04-14T09:44:40.616Z,988.02
2016-04-14T09:45:40.619Z,988.04
2016-04-14T09:46:40.621Z,987.99
2016-04-14T09:47:40.624Z,988.02
2016-04-14T09:48:40.642Z,988.01
2016-04-14T09:49:40.630Z,987.97
2016-04-14T09:50:40.632Z,987.99
2016-04-14T09:51:40.635Z,988
2016-04-14T09:52:40.653Z,988.01
2016-04-14T09:53:40.640Z,988.01
2016-04-14T09:54:40.643Z,987.97
2016-04-14T09:55:40.660Z,988.01
2016-04-14T09:56:40.679Z,987.94
2016-04-14T09:57:40.666Z,987.94
2016-04-14T09:58:40.685Z,987.96
2016-04-14T09:59:40.671Z,987.97
2016-04-14T10:00:40.674Z,987.92
2016-04-14T10:01:40.677Z,987.9
2016-04-14T10:02:40.680Z,987.93
2016-04-14T10:03:40.698Z,987.88
2016-04-14T10:04:40.701Z,987.95
2016-04-14T10:05:40.704Z,987.92
2016-04-14T10:06:40.706Z,987.89
2016-04-14T10:07:40.710Z,987.85
2016-04-14T10:08:40.712Z,987.84
2016-04-14T10:09:40.715Z,987.82
2016-04-14T10:10:40.718Z,987.8
2016-04-14T10:11:40.720Z,987.79
2016-04-14T10:12:40.739Z,987.74
2016-04-14T10:13:40.741Z,987.78
2016-04-14T10:14:40.744Z,987.76
2016-04-14T10:15:40.746Z,987.75
2016-04-14T10:16:40.749Z,987.68
2016-04-14T10:17:40.752Z,987.69
2016-04-14T10:18:40.755Z,987.74
2016-04-14T10:19:40.758Z,987.71
2016-04-14T10:20:40.775Z,987.74
2016-04-14T10:21:40.763Z,987.75
2016-04-14T10:22:40.780Z,987.76
2016-04-14T10:23:40.768Z,987.76
2016-04-14T10:24:40.771Z,987.76
2016-04-14T10:25:40.788Z,987.75
2016-04-14T10:26:40.776Z,987.73
2016-04-14T10:27:40.778Z,987.71
2016-04-14T10:28:40.781Z,987.72
2016-04-14T10:29:40.799Z,987.73
2016-04-14T10:30:40.787Z,987.76
2016-04-14T10:31:40.805Z,987.73
2016-04-14T10:32:40.807Z,987.74
2016-04-14T10:33:40.810Z,987.73
2016-04-14T10:34:40.813Z,987.74
2016-04-14T10:35:40.815Z,987.75
2016-04-14T10:36:40.835Z,987.76
2016-04-14T10:37:40.821Z,987.74
2016-04-14T10:38:40.824Z,987.72
2016-04-14T10:39:40.843Z,987.74
2016-04-14T10:40:40.829Z,987.77
2016-04-14T10:41:40.848Z,987.65
2016-04-14T10:42:40.850Z,987.64
2016-04-14T10:43:40.853Z,987.64
2016-04-14T10:44:40.855Z,987.76
2016-04-14T10:45:40.859Z,987.75
2016-04-14T10:46:40.861Z,987.75
2016-04-14T10:47:40.864Z,987.7
2016-04-14T10:48:40.882Z,987.72
2016-04-14T10:49:40.869Z,987.77
2016-04-14T10:50:40.872Z,987.77
2016-04-14T10:51:40.889Z,987.7
2016-04-14T10:52:40.892Z,987.71
2016-04-14T10:53:40.894Z,987.67
2016-04-14T10:54:40.897Z,987.63
2016-04-14T10:55:40.900Z,987.64
2016-04-14T10:56:40.903Z,987.69
2016-04-14T10:57:40.906Z,987.61
2016-04-14T10:58:40.908Z,987.62
2016-04-14T10:59:40.911Z,987.53
2016-04-14T11:00:40.913Z,987.56
2016-04-14T11:01:40.916Z,987.54
2016-04-14T11:02:40.935Z,987.55
2016-04-14T11:03:40.938Z,987.52
2016-04-14T11:04:40.941Z,987.5
2016-04-14T11:05:40.944Z,987.44
2016-04-14T11:06:40.946Z,987.44
2016-04-14T11:07:40.949Z,987.45
2016-04-14T11:08:40.951Z,987.45
2016-04-14T11:09:40.954Z,987.43
2016-04-14T11:10:40.957Z,987.46
2016-04-14T11:11:40.959Z,987.47
2016-04-14T11:12:40.962Z,987.49
2016-04-14T11:13:40.964Z,987.48
2016-04-14T11:14:40.968Z,987.52
2016-04-14T11:15:40.986Z,987.58
2016-04-14T11:16:40.973Z,987.6
2016-04-14T11:17:40.991Z,987.57
2016-04-14T11:18:40.978Z,987.6
2016-04-14T11:19:40.997Z,987.66
2016-04-14T11:20:40.983Z,987.63
2016-04-14T11:21:41.002Z,987.57
2016-04-14T11:22:41.004Z,987.53
2016-04-14T11:23:41.007Z,987.48
2016-04-14T11:24:40.994Z,987.46
2016-04-14T11:25:40.997Z,987.4
2016-04-14T11:26:41.016Z,987.42
2016-04-14T11:27:41.018Z,987.42
2016-04-14T11:28:41.021Z,987.37
2016-04-14T11:29:41.023Z,987.37
2016-04-14T11:30:41.026Z,987.35
2016-04-14T11:31:41.029Z,987.39
2016-04-14T11:32:41.032Z,987.42
2016-04-14T11:33:41.035Z,987.41
2016-04-14T11:34:41.036Z,987.43
2016-04-14T11:35:41.101Z,987.37
2016-04-14T11:36:41.042Z,987.43
2016-04-14T11:37:41.044Z,987.35
2016-04-14T11:38:41.062Z,987.36
2016-04-14T11:39:41.064Z,987.37
2016-04-14T11:40:41.067Z,987.37
2016-04-14T11:41:41.055Z,987.34
2016-04-14T11:42:41.058Z,987.38
2016-04-14T11:43:41.061Z,987.36
2016-04-14T11:44:41.078Z,987.36
2016-04-14T11:45:41.081Z,987.31
2016-04-14T11:46:41.083Z,987.36
2016-04-14T11:47:41.086Z,987.31
2016-04-14T11:48:41.089Z,987.38
2016-04-14T11:49:41.091Z,987.39
2016-04-14T11:50:41.099Z,987.37
2016-04-14T11:51:41.102Z,987.32
2016-04-14T11:52:41.105Z,987.31
2016-04-14T11:53:41.107Z,987.32
2016-04-14T11:54:41.110Z,987.31
2016-04-14T11:55:41.113Z,987.38
2016-04-14T11:56:41.115Z,987.36
2016-04-14T11:57:41.118Z,987.35
2016-04-14T11:58:41.120Z,987.35
2016-04-14T11:59:41.123Z,987.41
2016-04-14T12:00:41.126Z,987.37
2016-04-14T12:01:41.145Z,987.4
2016-04-14T12:02:41.132Z,987.43
2016-04-14T12:03:41.134Z,987.53
2016-04-14T12:04:41.153Z,987.53
2016-04-14T12:05:41.139Z,987.44
2016-04-14T12:06:41.158Z,987.47
2016-04-14T12:07:41.145Z,987.44
2016-04-14T12:08:41.163Z,987.45
2016-04-14T12:09:41.166Z,987.46
2016-04-14T12:10:41.183Z,987.37
2016-04-14T12:11:41.187Z,987.37
2016-04-14T12:12:41.189Z,987.43
2016-04-14T12:13:41.192Z,987.43
2016-04-14T12:14:41.179Z,987.43
2016-04-14T12:15:41.182Z,987.43
2016-04-14T12:16:41.185Z,987.43
2016-04-14T12:17:41.188Z,987.41
2016-04-14T12:18:41.191Z,987.41
2016-04-14T12:19:41.193Z,987.48
2016-04-14T12:20:41.196Z,987.53
2016-04-14T12:21:41.213Z,987.54
2016-04-14T12:22:41.216Z,987.56
2016-04-14T12:23:41.219Z,987.52
2016-04-14T12:24:41.221Z,987.54
2016-04-14T12:25:41.224Z,987.52
2016-04-14T12:26:41.227Z,987.51
2016-04-14T12:27:41.229Z,987.44
2016-04-14T12:28:41.233Z,987.48
2016-04-14T12:29:41.235Z,987.46
2016-04-14T12:30:41.238Z,987.48
2016-04-14T12:31:41.240Z,987.42